sensor_id;sensor_type;location;lat;lon;timestamp;pressure;altitude;pressure_sealevel;temperature;humidity
27705;BME280;15109;50.992;6.918;2022-10-26T00:02:27;100860.44;;;12.92;100.00
27705;BME280;15109;50.992;6.918;2022-10-26T00:05:48;100868.38;;;13.08;100.00
27705;BME280;15109;50.992;6.918;2022-10-26T00:09:09;100869.81;;;13.04;100.00
27705;BME280;15109;50.992;6.918;2022-10-26T00:12:30;100860.34;;;13.07;100.00
27705;BME280;15109;50.992;6.918;2022-10-26T00:15:51;100870.78;;;13.11;100.00
27705;BME280;15109;50.992;6.918;2022-10-26T00:19:12;100854.88;;;13.07;100.00
27705;BME280;15109;50.992;6.918;2022-10-26T00:22:33;100844.81;;;13.14;100.00
27705;BME280;15109;50.992;6.918;2022-10-26T00:25:55;100853.88;;;13.14;100.00
27705;BME280;15109;50.992;6.918;2022-10-26T00:29:16;100855.81;;;13.21;100.00
27705;BME280;15109;50.992;6.918;2022-10-26T00:32:38;100860.69;;;13.25;100.00
27705;BME280;15109;50.992;6.918;2022-10-26T00:35:59;100861.38;;;13.27;100.00
27705;BME280;15109;50.992;6.918;2022-10-26T00:39:20;100868.94;;;13.25;100.00
27705;BME280;15109;50.992;6.918;2022-10-26T00:42:41;100860.25;;;13.22;100.00
27705;BME280;15109;50.992;6.918;2022-10-26T00:46:05;100864.13;;;13.27;100.00
27705;BME280;15109;50.992;6.918;2022-10-26T00:49:28;100862.22;;;13.28;100.00
27705;BME280;15109;50.992;6.918;2022-10-26T00:52:50;100869.41;;;13.29;100.00
27705;BME280;15109;50.992;6.918;2022-10-26T00:56:12;100864.56;;;13.31;100.00
27705;BME280;15109;50.992;6.918;2022-10-26T00:59:33;100861.81;;;13.31;100.00
27705;BME280;15109;50.992;6.918;2022-10-26T01:02:56;100855.53;;;13.37;100.00
27705;BME280;15109;50.992;6.918;2022-10-26T01:06:18;100849.81;;;13.38;100.00
27705;BME280;15109;50.992;6.918;2022-10-26T01:09:40;100846.38;;;13.30;100.00
27705;BME280;15109;50.992;6.918;2022-10-26T01:13:02;100842.16;;;13.34;100.00
27705;BME280;15109;50.992;6.918;2022-10-26T01:20:38;100843.25;;;13.33;100.00
27705;BME280;15109;50.992;6.918;2022-10-26T01:27:46;100824.25;;;13.38;100.00
27705;BME280;15109;50.992;6.918;2022-10-26T01:31:10;100825.34;;;13.43;100.00
27705;BME280;15109;50.992;6.918;2022-10-26T01:38:57;100817.25;;;13.35;100.00
27705;BME280;15109;50.992;6.918;2022-10-26T01:42:22;100813.47;;;13.36;100.00
27705;BME280;15109;50.992;6.918;2022-10-26T01:45:46;100807.56;;;13.39;100.00
27705;BME280;15109;50.992;6.918;2022-10-26T01:49:10;100809.03;;;13.42;100.00
27705;BME280;15109;50.992;6.918;2022-10-26T01:52:32;100804.03;;;13.45;100.00
27705;BME280;15109;50.992;6.918;2022-10-26T01:55:54;100804.66;;;13.47;100.00
27705;BME280;15109;50.992;6.918;2022-10-26T02:03:00;100804.22;;;13.50;100.00
27705;BME280;15109;50.992;6.918;2022-10-26T02:17:44;100796.84;;;13.51;100.00
27705;BME280;15109;50.992;6.918;2022-10-26T02:21:12;100795.38;;;13.48;100.00
27705;BME280;15109;50.992;6.918;2022-10-26T02:24:36;100792.19;;;13.51;100.00
27705;BME280;15109;50.992;6.918;2022-10-26T02:28:05;100788.66;;;13.57;100.00
27705;BME280;15109;50.992;6.918;2022-10-26T02:31:27;100777.47;;;13.66;100.00
27705;BME280;15109;50.992;6.918;2022-10-26T02:34:50;100781.06;;;13.66;100.00
27705;BME280;15109;50.992;6.918;2022-10-26T02:38:13;100782.78;;;13.67;100.00
27705;BME280;15109;50.992;6.918;2022-10-26T02:41:38;100779.56;;;13.63;100.00
27705;BME280;15109;50.992;6.918;2022-10-26T02:45:08;100769.22;;;13.66;100.00
27705;BME280;15109;50.992;6.918;2022-10-26T02:48:30;100773.69;;;13.67;100.00
27705;BME280;15109;50.992;6.918;2022-10-26T02:52:02;100774.31;;;13.69;100.00
27705;BME280;15109;50.992;6.918;2022-10-26T02:55:32;100767.16;;;13.74;100.00
27705;BME280;15109;50.992;6.918;2022-10-26T02:58:58;100763.75;;;13.72;100.00
27705;BME280;15109;50.992;6.918;2022-10-26T03:02:21;100765.69;;;13.72;100.00
27705;BME280;15109;50.992;6.918;2022-10-26T03:05:42;100759.34;;;13.78;100.00
27705;BME280;15109;50.992;6.918;2022-10-26T03:09:03;100769.72;;;13.76;100.00
27705;BME280;15109;50.992;6.918;2022-10-26T03:12:24;100764.84;;;13.78;100.00
27705;BME280;15109;50.992;6.918;2022-10-26T03:15:45;100755.34;;;13.80;100.00
27705;BME280;15109;50.992;6.918;2022-10-26T03:19:07;100752.38;;;13.82;100.00
27705;BME280;15109;50.992;6.918;2022-10-26T03:22:28;100758.09;;;13.80;100.00
27705;BME280;15109;50.992;6.918;2022-10-26T03:25:49;100751.31;;;13.83;100.00
27705;BME280;15109;50.992;6.918;2022-10-26T03:29:10;100755.97;;;13.82;100.00
27705;BME280;15109;50.992;6.918;2022-10-26T03:32:31;100754.91;;;13.83;100.00
27705;BME280;15109;50.992;6.918;2022-10-26T03:35:55;100757.66;;;13.83;100.00
27705;BME280;15109;50.992;6.918;2022-10-26T03:39:16;100760.63;;;13.82;100.00
27705;BME280;15109;50.992;6.918;2022-10-26T03:42:38;100752.19;;;13.90;100.00
27705;BME280;15109;50.992;6.918;2022-10-26T03:45:59;100758.94;;;13.94;100.00
27705;BME280;15109;50.992;6.918;2022-10-26T03:49:20;100750.72;;;14.00;100.00
27705;BME280;15109;50.992;6.918;2022-10-26T03:52:42;100752.81;;;13.98;100.00
27705;BME280;15109;50.992;6.918;2022-10-26T03:56:03;100754.09;;;14.02;100.00
27705;BME280;15109;50.992;6.918;2022-10-26T03:59:24;100749.88;;;14.00;100.00
27705;BME280;15109;50.992;6.918;2022-10-26T04:02:52;100751.59;;;14.01;100.00
27705;BME280;15109;50.992;6.918;2022-10-26T04:06:14;100749.88;;;14.06;100.00
27705;BME280;15109;50.992;6.918;2022-10-26T04:09:35;100756.66;;;14.04;100.00
27705;BME280;15109;50.992;6.918;2022-10-26T04:12:56;100754.75;;;14.11;100.00
27705;BME280;15109;50.992;6.918;2022-10-26T04:16:20;100751.59;;;14.07;100.00
27705;BME280;15109;50.992;6.918;2022-10-26T04:19:41;100758.97;;;14.07;100.00
27705;BME280;15109;50.992;6.918;2022-10-26T04:23:04;100759.84;;;14.14;100.00
27705;BME280;15109;50.992;6.918;2022-10-26T04:26:26;100754.97;;;14.09;100.00
27705;BME280;15109;50.992;6.918;2022-10-26T04:29:47;100765.13;;;14.09;100.00
27705;BME280;15109;50.992;6.918;2022-10-26T04:33:08;100754.13;;;14.16;100.00
27705;BME280;15109;50.992;6.918;2022-10-26T04:36:33;100748.84;;;14.21;100.00
27705;BME280;15109;50.992;6.918;2022-10-26T04:39:54;100753.72;;;14.25;100.00
27705;BME280;15109;50.992;6.918;2022-10-26T04:43:15;100757.09;;;14.21;100.00
27705;BME280;15109;50.992;6.918;2022-10-26T04:46:36;100758.19;;;14.26;100.00
27705;BME280;15109;50.992;6.918;2022-10-26T04:49:57;100759.22;;;14.25;100.00
27705;BME280;15109;50.992;6.918;2022-10-26T04:53:18;100758.19;;;14.26;100.00
27705;BME280;15109;50.992;6.918;2022-10-26T04:56:40;100755.44;;;14.26;100.00
27705;BME280;15109;50.992;6.918;2022-10-26T05:00:04;100749.91;;;14.33;100.00
27705;BME280;15109;50.992;6.918;2022-10-26T05:03:27;100750.34;;;14.30;100.00
27705;BME280;15109;50.992;6.918;2022-10-26T05:06:51;100751.63;;;14.34;100.00
27705;BME280;15109;50.992;6.918;2022-10-26T05:10:12;100750.41;;;14.43;100.00
27705;BME280;15109;50.992;6.918;2022-10-26T05:13:33;100763.31;;;14.42;100.00
27705;BME280;15109;50.992;6.918;2022-10-26T05:16:54;100744.25;;;14.47;100.00
27705;BME280;15109;50.992;6.918;2022-10-26T05:20:16;100761.19;;;14.44;100.00
27705;BME280;15109;50.992;6.918;2022-10-26T05:23:37;100750.16;;;14.38;100.00
27705;BME280;15109;50.992;6.918;2022-10-26T05:26:58;100760.13;;;14.39;100.00
27705;BME280;15109;50.992;6.918;2022-10-26T05:30:19;100756.09;;;14.41;100.00
27705;BME280;15109;50.992;6.918;2022-10-26T05:33:40;100746.16;;;14.40;100.00
27705;BME280;15109;50.992;6.918;2022-10-26T05:37:01;100748.91;;;14.47;100.00
27705;BME280;15109;50.992;6.918;2022-10-26T05:40:22;100750.41;;;14.43;100.00
27705;BME280;15109;50.992;6.918;2022-10-26T05:43:46;100756.31;;;14.46;100.00
27705;BME280;15109;50.992;6.918;2022-10-26T05:47:07;100753.78;;;14.51;100.00
27705;BME280;15109;50.992;6.918;2022-10-26T05:50:28;100755.25;;;14.47;100.00
27705;BME280;15109;50.992;6.918;2022-10-26T05:53:50;100759.72;;;14.48;100.00
27705;BME280;15109;50.992;6.918;2022-10-26T05:57:14;100753.97;;;14.50;100.00
27705;BME280;15109;50.992;6.918;2022-10-26T06:00:48;100755.06;;;14.49;100.00
27705;BME280;15109;50.992;6.918;2022-10-26T06:07:40;100777.94;;;14.49;100.00
27705;BME280;15109;50.992;6.918;2022-10-26T06:11:01;100770.72;;;14.55;100.00
27705;BME280;15109;50.992;6.918;2022-10-26T06:14:23;100776.88;;;14.57;100.00
27705;BME280;15109;50.992;6.918;2022-10-26T06:25:24;100786.81;;;14.65;100.00
27705;BME280;15109;50.992;6.918;2022-10-26T06:29:25;100797.38;;;14.68;100.00
27705;BME280;15109;50.992;6.918;2022-10-26T06:32:51;100801.00;;;14.75;100.00
27705;BME280;15109;50.992;6.918;2022-10-26T06:36:26;100806.06;;;14.78;100.00
27705;BME280;15109;50.992;6.918;2022-10-26T06:39:49;100811.78;;;14.76;100.00
27705;BME280;15109;50.992;6.918;2022-10-26T06:43:16;100820.69;;;14.78;100.00
27705;BME280;15109;50.992;6.918;2022-10-26T06:46:54;100808.81;;;14.78;100.00
27705;BME280;15109;50.992;6.918;2022-10-26T06:54:17;100807.56;;;14.87;100.00
27705;BME280;15109;50.992;6.918;2022-10-26T06:57:42;100802.47;;;14.77;100.00
27705;BME280;15109;50.992;6.918;2022-10-26T07:01:04;100803.31;;;14.78;100.00
27705;BME280;15109;50.992;6.918;2022-10-26T07:04:25;100796.97;;;14.77;100.00
27705;BME280;15109;50.992;6.918;2022-10-26T07:07:47;100802.06;;;14.74;100.00
27705;BME280;15109;50.992;6.918;2022-10-26T07:11:08;100816.66;;;14.74;100.00
27705;BME280;15109;50.992;6.918;2022-10-26T07:14:29;100816.44;;;14.69;100.00
27705;BME280;15109;50.992;6.918;2022-10-26T07:17:50;100821.31;;;14.67;100.00
27705;BME280;15109;50.992;6.918;2022-10-26T07:21:11;100812.44;;;14.65;100.00
27705;BME280;15109;50.992;6.918;2022-10-26T07:24:32;100828.94;;;14.65;100.00
27705;BME280;15109;50.992;6.918;2022-10-26T07:27:57;100827.25;;;14.64;100.00
27705;BME280;15109;50.992;6.918;2022-10-26T07:31:19;100837.19;;;14.65;100.00
27705;BME280;15109;50.992;6.918;2022-10-26T07:34:40;100838.47;;;14.69;100.00
27705;BME280;15109;50.992;6.918;2022-10-26T07:38:01;100839.75;;;14.73;100.00
27705;BME280;15109;50.992;6.918;2022-10-26T07:41:22;100843.97;;;14.69;100.00
27705;BME280;15109;50.992;6.918;2022-10-26T07:44:43;100845.69;;;14.70;100.00
27705;BME280;15109;50.992;6.918;2022-10-26T07:48:04;100842.50;;;14.67;100.00
27705;BME280;15109;50.992;6.918;2022-10-26T07:51:26;100838.03;;;14.59;100.00
27705;BME280;15109;50.992;6.918;2022-10-26T07:54:47;100835.50;;;14.58;100.00
27705;BME280;15109;50.992;6.918;2022-10-26T07:58:08;100839.94;;;14.65;100.00
27705;BME280;15109;50.992;6.918;2022-10-26T08:01:29;100837.81;;;14.67;100.00
27705;BME280;15109;50.992;6.918;2022-10-26T08:04:50;100838.28;;;14.71;100.00
27705;BME280;15109;50.992;6.918;2022-10-26T08:08:11;100837.19;;;14.72;100.00
27705;BME280;15109;50.992;6.918;2022-10-26T08:11:32;100839.09;;;14.78;100.00
27705;BME280;15109;50.992;6.918;2022-10-26T08:14:53;100838.91;;;14.86;100.00
27705;BME280;15109;50.992;6.918;2022-10-26T08:18:14;100842.06;;;14.89;100.00
27705;BME280;15109;50.992;6.918;2022-10-26T08:21:35;100860.72;;;15.01;100.00
27705;BME280;15109;50.992;6.918;2022-10-26T08:24:56;100853.28;;;15.08;100.00
27705;BME280;15109;50.992;6.918;2022-10-26T08:28:17;100844.19;;;15.14;100.00
27705;BME280;15109;50.992;6.918;2022-10-26T08:31:38;100856.69;;;15.23;100.00
27705;BME280;15109;50.992;6.918;2022-10-26T08:34:59;100858.34;;;15.24;100.00
27705;BME280;15109;50.992;6.918;2022-10-26T08:38:20;100855.19;;;15.27;100.00
27705;BME280;15109;50.992;6.918;2022-10-26T08:41:43;100861.09;;;15.43;100.00
27705;BME280;15109;50.992;6.918;2022-10-26T08:48:50;100868.84;;;15.79;100.00
27705;BME280;15109;50.992;6.918;2022-10-26T08:52:16;100867.56;;;15.88;100.00
27705;BME280;15109;50.992;6.918;2022-10-26T08:55:53;100868.59;;;15.94;100.00
27705;BME280;15109;50.992;6.918;2022-10-26T09:02:58;100871.50;;;16.06;100.00
27705;BME280;15109;50.992;6.918;2022-10-26T09:06:29;100867.25;;;16.10;100.00
27705;BME280;15109;50.992;6.918;2022-10-26T09:10:26;100868.75;;;16.12;100.00
27705;BME280;15109;50.992;6.918;2022-10-26T09:17:52;100901.81;;;16.19;100.00
27705;BME280;15109;50.992;6.918;2022-10-26T09:21:30;100910.09;;;16.19;100.00
27705;BME280;15109;50.992;6.918;2022-10-26T09:24:56;100918.81;;;16.16;100.00
27705;BME280;15109;50.992;6.918;2022-10-26T09:28:20;100929.19;;;16.20;100.00
27705;BME280;15109;50.992;6.918;2022-10-26T09:31:44;100933.59;;;16.28;100.00
27705;BME280;15109;50.992;6.918;2022-10-26T09:38:40;100941.03;;;16.34;100.00
27705;BME280;15109;50.992;6.918;2022-10-26T09:42:11;100954.63;;;16.29;100.00
27705;BME280;15109;50.992;6.918;2022-10-26T09:45:38;100950.41;;;16.26;100.00
27705;BME280;15109;50.992;6.918;2022-10-26T09:49:05;100957.19;;;16.30;100.00
27705;BME280;15109;50.992;6.918;2022-10-26T09:52:28;100959.69;;;16.32;100.00
27705;BME280;15109;50.992;6.918;2022-10-26T09:55:58;100957.72;;;16.46;100.00
27705;BME280;15109;50.992;6.918;2022-10-26T09:59:22;100961.72;;;16.63;100.00
27705;BME280;15109;50.992;6.918;2022-10-26T10:02:52;100949.38;;;16.65;100.00
27705;BME280;15109;50.992;6.918;2022-10-26T10:06:20;100963.59;;;16.69;100.00
27705;BME280;15109;50.992;6.918;2022-10-26T10:09:41;100966.97;;;16.77;100.00
27705;BME280;15109;50.992;6.918;2022-10-26T10:13:15;100963.53;;;16.82;100.00
27705;BME280;15109;50.992;6.918;2022-10-26T10:16:37;100978.34;;;16.88;100.00
27705;BME280;15109;50.992;6.918;2022-10-26T10:20:06;100985.13;;;16.92;100.00
27705;BME280;15109;50.992;6.918;2022-10-26T10:23:34;100983.66;;;16.89;100.00
27705;BME280;15109;50.992;6.918;2022-10-26T10:27:02;100992.59;;;16.91;100.00
27705;BME280;15109;50.992;6.918;2022-10-26T10:30:32;101000.34;;;17.07;100.00
27705;BME280;15109;50.992;6.918;2022-10-26T10:33:53;101007.56;;;17.08;100.00
27705;BME280;15109;50.992;6.918;2022-10-26T10:37:39;101013.91;;;17.09;100.00
27705;BME280;15109;50.992;6.918;2022-10-26T10:41:14;101016.19;;;17.18;100.00
27705;BME280;15109;50.992;6.918;2022-10-26T10:44:36;101020.41;;;17.28;100.00
27705;BME280;15109;50.992;6.918;2022-10-26T10:48:03;101021.38;;;17.40;100.00
27705;BME280;15109;50.992;6.918;2022-10-26T10:51:25;101020.28;;;17.47;100.00
27705;BME280;15109;50.992;6.918;2022-10-26T10:54:46;101021.50;;;17.51;100.00
27705;BME280;15109;50.992;6.918;2022-10-26T10:58:20;101031.06;;;17.55;100.00
27705;BME280;15109;50.992;6.918;2022-10-26T11:05:43;101037.06;;;17.77;100.00
27705;BME280;15109;50.992;6.918;2022-10-26T11:09:11;101046.03;;;17.97;100.00
27705;BME280;15109;50.992;6.918;2022-10-26T11:12:39;101039.22;;;18.18;100.00
27705;BME280;15109;50.992;6.918;2022-10-26T11:16:04;101042.38;;;18.22;100.00
27705;BME280;15109;50.992;6.918;2022-10-26T11:19:35;101046.53;;;18.31;100.00
27705;BME280;15109;50.992;6.918;2022-10-26T11:35:56;101057.34;;;18.93;100.00
27705;BME280;15109;50.992;6.918;2022-10-26T11:39:32;101055.31;;;19.00;100.00
27705;BME280;15109;50.992;6.918;2022-10-26T11:43:13;101059.94;;;19.07;100.00
27705;BME280;15109;50.992;6.918;2022-10-26T11:46:40;101056.81;;;19.15;100.00
27705;BME280;15109;50.992;6.918;2022-10-26T11:50:32;101058.03;;;19.19;100.00
27705;BME280;15109;50.992;6.918;2022-10-26T11:53:56;101055.78;;;19.27;100.00
27705;BME280;15109;50.992;6.918;2022-10-26T11:57:18;101049.63;;;19.25;100.00
27705;BME280;15109;50.992;6.918;2022-10-26T12:00:46;101057.84;;;19.32;100.00
27705;BME280;15109;50.992;6.918;2022-10-26T12:04:07;101059.06;;;19.36;100.00
27705;BME280;15109;50.992;6.918;2022-10-26T12:07:32;101065.91;;;19.52;100.00
27705;BME280;15109;50.992;6.918;2022-10-26T12:14:38;101060.75;;;19.67;100.00
27705;BME280;15109;50.992;6.918;2022-10-26T12:18:10;101061.13;;;19.70;100.00
27705;BME280;15109;50.992;6.918;2022-10-26T12:21:33;101068.72;;;19.75;100.00
27705;BME280;15109;50.992;6.918;2022-10-26T12:28:38;101085.25;;;19.81;100.00
27705;BME280;15109;50.992;6.918;2022-10-26T12:32:00;101086.59;;;19.90;100.00
27705;BME280;15109;50.992;6.918;2022-10-26T12:35:32;101087.09;;;19.99;100.00
27705;BME280;15109;50.992;6.918;2022-10-26T12:38:55;101087.00;;;20.06;100.00
27705;BME280;15109;50.992;6.918;2022-10-26T12:45:39;101095.56;;;20.04;100.00
27705;BME280;15109;50.992;6.918;2022-10-26T12:49:00;101095.56;;;20.04;100.00
27705;BME280;15109;50.992;6.918;2022-10-26T12:56:03;101110.16;;;20.00;100.00
27705;BME280;15109;50.992;6.918;2022-10-26T13:13:35;101117.78;;;20.16;100.00
27705;BME280;15109;50.992;6.918;2022-10-26T13:16:56;101113.19;;;20.21;100.00
27705;BME280;15109;50.992;6.918;2022-10-26T13:20:18;101106.94;;;20.14;100.00
27705;BME280;15109;50.992;6.918;2022-10-26T13:23:41;101108.13;;;20.18;100.00
27705;BME280;15109;50.992;6.918;2022-10-26T13:30:40;101117.41;;;20.12;100.00
27705;BME280;15109;50.992;6.918;2022-10-26T13:34:04;101126.47;;;20.08;100.00
27705;BME280;15109;50.992;6.918;2022-10-26T13:37:31;101126.94;;;20.05;100.00
27705;BME280;15109;50.992;6.918;2022-10-26T13:41:01;101133.00;;;20.02;100.00
27705;BME280;15109;50.992;6.918;2022-10-26T13:44:28;101140.22;;;20.03;100.00
27705;BME280;15109;50.992;6.918;2022-10-26T13:48:04;101133.94;;;20.07;100.00
27705;BME280;15109;50.992;6.918;2022-10-26T13:51:38;101139.75;;;20.06;100.00
27705;BME280;15109;50.992;6.918;2022-10-26T13:55:04;101147.47;;;20.04;100.00
27705;BME280;15109;50.992;6.918;2022-10-26T13:58:34;101148.41;;;19.98;100.00
27705;BME280;15109;50.992;6.918;2022-10-26T14:02:24;101153.13;;;19.97;100.00
27705;BME280;15109;50.992;6.918;2022-10-26T15:11:22;101179.72;;;19.45;100.00
27705;BME280;15109;50.992;6.918;2022-10-26T15:14:43;101182.31;;;19.40;100.00
27705;BME280;15109;50.992;6.918;2022-10-26T15:18:04;101186.63;;;19.36;100.00
27705;BME280;15109;50.992;6.918;2022-10-26T15:21:32;101184.41;;;19.26;100.00
27705;BME280;15109;50.992;6.918;2022-10-26T15:24:56;101196.41;;;19.20;100.00
27705;BME280;15109;50.992;6.918;2022-10-26T15:32:40;101215.22;;;19.00;100.00
27705;BME280;15109;50.992;6.918;2022-10-26T15:36:26;101228.13;;;18.88;100.00
27705;BME280;15109;50.992;6.918;2022-10-26T15:39:48;101227.19;;;18.76;100.00
27705;BME280;15109;50.992;6.918;2022-10-26T15:43:10;101242.41;;;18.67;100.00
27705;BME280;15109;50.992;6.918;2022-10-26T15:46:34;101244.63;;;18.58;100.00
27705;BME280;15109;50.992;6.918;2022-10-26T15:49:55;101244.03;;;18.49;100.00
27705;BME280;15109;50.992;6.918;2022-10-26T15:53:21;101242.81;;;18.39;100.00
27705;BME280;15109;50.992;6.918;2022-10-26T15:56:43;101245.25;;;18.29;100.00
27705;BME280;15109;50.992;6.918;2022-10-26T16:00:06;101248.72;;;18.18;100.00
27705;BME280;15109;50.992;6.918;2022-10-26T16:03:28;101252.44;;;18.05;100.00
27705;BME280;15109;50.992;6.918;2022-10-26T16:06:49;101261.06;;;17.90;100.00
27705;BME280;15109;50.992;6.918;2022-10-26T16:10:17;101263.66;;;17.79;100.00
27705;BME280;15109;50.992;6.918;2022-10-26T16:13:40;101260.09;;;17.65;100.00
27705;BME280;15109;50.992;6.918;2022-10-26T16:17:01;101272.69;;;17.48;100.00
27705;BME280;15109;50.992;6.918;2022-10-26T16:20:23;101268.06;;;17.35;100.00
27705;BME280;15109;50.992;6.918;2022-10-26T16:23:49;101281.31;;;17.20;100.00
27705;BME280;15109;50.992;6.918;2022-10-26T16:27:10;101280.47;;;17.06;100.00
27705;BME280;15109;50.992;6.918;2022-10-26T16:30:31;101283.91;;;16.95;100.00
27705;BME280;15109;50.992;6.918;2022-10-26T16:33:53;101296.25;;;16.86;100.00
27705;BME280;15109;50.992;6.918;2022-10-26T16:37:14;101296.88;;;16.68;100.00
27705;BME280;15109;50.992;6.918;2022-10-26T16:40:35;101309.00;;;16.61;100.00
27705;BME280;15109;50.992;6.918;2022-10-26T16:43:56;101311.28;;;16.51;100.00
27705;BME280;15109;50.992;6.918;2022-10-26T16:47:17;101330.59;;;16.44;100.00
27705;BME280;15109;50.992;6.918;2022-10-26T16:50:39;101325.28;;;16.36;100.00
27705;BME280;15109;50.992;6.918;2022-10-26T16:54:00;101330.56;;;16.31;100.00
27705;BME280;15109;50.992;6.918;2022-10-26T16:57:21;101328.44;;;16.20;100.00
27705;BME280;15109;50.992;6.918;2022-10-26T17:00:42;101339.91;;;16.17;100.00
27705;BME280;15109;50.992;6.918;2022-10-26T17:04:03;101341.81;;;16.23;100.00
27705;BME280;15109;50.992;6.918;2022-10-26T17:07:24;101347.13;;;16.18;100.00
27705;BME280;15109;50.992;6.918;2022-10-26T17:10:45;101356.44;;;16.17;100.00
27705;BME280;15109;50.992;6.918;2022-10-26T17:14:06;101350.28;;;16.08;100.00
27705;BME280;15109;50.992;6.918;2022-10-26T17:17:27;101365.06;;;16.01;100.00
27705;BME280;15109;50.992;6.918;2022-10-26T17:20:49;101377.75;;;15.88;100.00
27705;BME280;15109;50.992;6.918;2022-10-26T17:24:10;101379.66;;;15.88;100.00
27705;BME280;15109;50.992;6.918;2022-10-26T17:27:33;101386.63;;;15.77;100.00
27705;BME280;15109;50.992;6.918;2022-10-26T17:34:22;101400.16;;;15.66;100.00
27705;BME280;15109;50.992;6.918;2022-10-26T17:37:43;101397.78;;;15.63;100.00
27705;BME280;15109;50.992;6.918;2022-10-26T17:41:09;101403.91;;;15.58;100.00
27705;BME280;15109;50.992;6.918;2022-10-26T17:44:30;101417.50;;;15.60;100.00
27705;BME280;15109;50.992;6.918;2022-10-26T17:47:53;101425.72;;;15.53;100.00
27705;BME280;15109;50.992;6.918;2022-10-26T17:51:16;101429.88;;;15.49;100.00
27705;BME280;15109;50.992;6.918;2022-10-26T17:54:38;101437.72;;;15.45;100.00
27705;BME280;15109;50.992;6.918;2022-10-26T17:57:59;101436.84;;;15.45;100.00
27705;BME280;15109;50.992;6.918;2022-10-26T18:01:20;101436.41;;;15.41;100.00
27705;BME280;15109;50.992;6.918;2022-10-26T18:04:41;101448.09;;;15.43;100.00
27705;BME280;15109;50.992;6.918;2022-10-26T18:08:02;101450.41;;;15.40;100.00
27705;BME280;15109;50.992;6.918;2022-10-26T18:11:23;101458.59;;;15.33;100.00
27705;BME280;15109;50.992;6.918;2022-10-26T18:14:45;101459.81;;;15.24;100.00
27705;BME280;15109;50.992;6.918;2022-10-26T18:18:06;101463.16;;;15.20;100.00
27705;BME280;15109;50.992;6.918;2022-10-26T18:21:30;101470.34;;;15.14;100.00
27705;BME280;15109;50.992;6.918;2022-10-26T18:24:51;101477.25;;;15.10;100.00
27705;BME280;15109;50.992;6.918;2022-10-26T18:28:12;101489.09;;;15.04;100.00
27705;BME280;15109;50.992;6.918;2022-10-26T18:31:33;101491.56;;;14.99;100.00
27705;BME280;15109;50.992;6.918;2022-10-26T18:34:54;101497.25;;;14.97;100.00
27705;BME280;15109;50.992;6.918;2022-10-26T18:38:15;101498.94;;;14.92;100.00
27705;BME280;15109;50.992;6.918;2022-10-26T18:41:37;101501.22;;;14.88;100.00
27705;BME280;15109;50.992;6.918;2022-10-26T18:44:58;101513.06;;;14.89;100.00
27705;BME280;15109;50.992;6.918;2022-10-26T18:48:22;101509.09;;;14.91;100.00
27705;BME280;15109;50.992;6.918;2022-10-26T18:51:43;101511.84;;;14.91;100.00
27705;BME280;15109;50.992;6.918;2022-10-26T18:55:05;101516.31;;;14.92;100.00
27705;BME280;15109;50.992;6.918;2022-10-26T18:58:34;101515.81;;;14.89;100.00
27705;BME280;15109;50.992;6.918;2022-10-26T19:01:55;101520.50;;;14.88;100.00
27705;BME280;15109;50.992;6.918;2022-10-26T19:05:16;101521.72;;;14.86;100.00
27705;BME280;15109;50.992;6.918;2022-10-26T19:08:38;101529.59;;;14.89;100.00
27705;BME280;15109;50.992;6.918;2022-10-26T19:11:59;101526.59;;;14.84;100.00
27705;BME280;15109;50.992;6.918;2022-10-26T19:15:20;101539.00;;;14.80;100.00
27705;BME280;15109;50.992;6.918;2022-10-26T19:18:41;101538.38;;;14.78;100.00
27705;BME280;15109;50.992;6.918;2022-10-26T19:22:02;101541.53;;;14.75;100.00
27705;BME280;15109;50.992;6.918;2022-10-26T19:25:23;101543.94;;;14.84;100.00
27705;BME280;15109;50.992;6.918;2022-10-26T19:28:45;101546.69;;;14.84;100.00
27705;BME280;15109;50.992;6.918;2022-10-26T19:32:07;101552.13;;;14.78;100.00
27705;BME280;15109;50.992;6.918;2022-10-26T19:35:29;101547.38;;;14.72;100.00
27705;BME280;15109;50.992;6.918;2022-10-26T19:38:50;101552.25;;;14.70;100.00
27705;BME280;15109;50.992;6.918;2022-10-26T19:42:11;101554.53;;;14.66;100.00
27705;BME280;15109;50.992;6.918;2022-10-26T19:45:34;101560.06;;;14.66;100.00
27705;BME280;15109;50.992;6.918;2022-10-26T19:49:00;101556.16;;;14.61;100.00
27705;BME280;15109;50.992;6.918;2022-10-26T19:52:21;101558.16;;;14.52;100.00
27705;BME280;15109;50.992;6.918;2022-10-26T19:55:43;101559.59;;;14.48;100.00
27705;BME280;15109;50.992;6.918;2022-10-26T19:59:05;101561.22;;;14.42;100.00
27705;BME280;15109;50.992;6.918;2022-10-26T20:02:26;101557.13;;;14.38;100.00
27705;BME280;15109;50.992;6.918;2022-10-26T20:05:47;101567.66;;;14.35;100.00
27705;BME280;15109;50.992;6.918;2022-10-26T20:09:09;101568.69;;;14.34;100.00
27705;BME280;15109;50.992;6.918;2022-10-26T20:12:30;101574.88;;;14.36;100.00
27705;BME280;15109;50.992;6.918;2022-10-26T20:15:51;101576.84;;;14.27;100.00
27705;BME280;15109;50.992;6.918;2022-10-26T20:19:12;101572.97;;;14.22;100.00
27705;BME280;15109;50.992;6.918;2022-10-26T20:22:33;101580.06;;;14.16;100.00
27705;BME280;15109;50.992;6.918;2022-10-26T20:25:54;101583.19;;;14.13;100.00
27705;BME280;15109;50.992;6.918;2022-10-26T20:29:18;101583.19;;;14.13;100.00
27705;BME280;15109;50.992;6.918;2022-10-26T20:32:39;101582.03;;;14.07;100.00